Time;durP1;ratioP1;P1;durP2;ratioP2;P2;SDS_P1;SDS_P2;PMS_P1;PMS_P2;Temp;Humidity;BMP_temperature;BMP_pressure;BME280_temperature;BME280_humidity;BME280_pressure;Samples;Min_cycle;Max_cycle;Signal;HPM_P1;HPM_P2
2022/02/25 00:01:11;;;;;;;8.43;2.47;;;4.40;1.00;;;;;;5047567;28;20177;-90
2022/02/25 00:03:51;;;;;;;9.43;2.53;;;4.50;1.00;;;;;;5043167;28;20240;-95
2022/02/25 00:06:21;;;;;;;6.70;2.10;;;4.60;1.00;;;;;;5079039;28;20168;-96
2022/02/25 00:08:50;;;;;;;8.03;2.90;;;4.60;1.00;;;;;;5063750;28;20177;-92
2022/02/25 00:11:16;;;;;;;5.00;2.60;;;4.60;1.00;;;;;;5063800;28;20192;-93
2022/02/25 00:13:43;;;;;;;9.47;2.40;;;4.60;1.00;;;;;;5063756;28;20205;-94
2022/02/25 00:16:10;;;;;;;7.30;2.47;;;4.50;1.00;;;;;;5063737;28;20184;-95
2022/02/25 00:18:36;;;;;;;11.23;2.30;;;4.50;1.00;;;;;;5063673;28;20160;-93
2022/02/25 00:21:03;;;;;;;9.63;2.70;;;4.50;1.00;;;;;;5076931;28;20197;-95
2022/02/25 00:23:32;;;;;;;11.93;2.60;;;4.40;1.00;;;;;;5056602;28;20173;-96
2022/02/25 00:25:57;;;;;;;7.67;2.23;;;4.50;1.00;;;;;;5035076;28;20223;-96
2022/02/25 00:28:37;;;;;;;13.73;2.70;;;4.40;1.00;;;;;;5035481;28;20185;-96
2022/02/25 00:31:04;;;;;;;11.43;2.20;;;4.40;1.00;;;;;;5042758;28;20256;-94
2022/02/25 00:33:33;;;;;;;9.57;2.10;;;4.30;1.00;;;;;;5042229;28;20602;-92
2022/02/25 00:35:58;;;;;;;8.13;2.20;;;4.30;1.00;;;;;;5043532;28;20186;-93
2022/02/25 00:38:35;;;;;;;5.73;1.83;;;4.30;1.00;;;;;;5038783;28;20185;-96
2022/02/25 00:41:04;;;;;;;9.80;3.03;;;4.30;1.00;;;;;;5000242;28;20204;-96
2022/02/25 00:43:33;;;;;;;9.00;2.37;;;4.30;1.00;;;;;;5029756;28;20208;-96
2022/02/25 00:46:09;;;;;;;7.53;2.73;;;4.30;1.00;;;;;;5024579;28;20174;-94
2022/02/25 00:48:36;;;;;;;5.40;2.27;;;4.30;1.00;;;;;;5025404;28;20205;-96
2022/02/25 00:51:13;;;;;;;5.70;2.00;;;4.30;1.00;;;;;;5025443;28;20209;-95
2022/02/25 00:53:41;;;;;;;8.60;2.90;;;4.20;1.00;;;;;;5011891;28;20165;-95
2022/02/25 00:56:07;;;;;;;10.27;2.40;;;4.20;1.00;;;;;;5041411;28;20173;-95
2022/02/25 00:58:33;;;;;;;6.63;2.40;;;4.20;1.00;;;;;;5040843;28;20241;-96
2022/02/25 01:01:05;;;;;;;7.73;2.40;;;4.10;1.00;;;;;;5060152;28;20173;-94
2022/02/25 01:03:31;;;;;;;5.87;2.10;;;4.10;1.00;;;;;;5040579;28;20169;-94
2022/02/25 01:05:57;;;;;;;7.37;2.63;;;4.30;1.00;;;;;;5036085;28;20185;-95
2022/02/25 01:08:25;;;;;;;6.83;2.53;;;4.10;1.00;;;;;;5039817;28;20187;-93
2022/02/25 01:10:51;;;;;;;9.53;2.57;;;4.20;1.00;;;;;;5042756;28;20193;-91
2022/02/25 01:13:20;;;;;;;9.10;2.43;;;4.30;1.00;;;;;;5042922;28;20158;-90
2022/02/25 01:15:48;;;;;;;7.70;2.50;;;4.20;1.00;;;;;;5042652;28;20170;-93
2022/02/25 01:18:36;;;;;;;8.90;2.63;;;4.10;1.00;;;;;;5042337;28;20158;-94
2022/02/25 01:21:20;;;;;;;8.37;2.87;;;4.10;1.00;;;;;;5024670;28;20174;-96
2022/02/25 01:23:50;;;;;;;5.90;2.17;;;4.00;1.00;;;;;;5023884;28;20183;-96
2022/02/25 01:26:19;;;;;;;7.97;2.77;;;4.00;1.00;;;;;;5042340;28;20201;-96
2022/02/25 01:28:46;;;;;;;12.10;3.17;;;4.00;1.00;;;;;;5029011;28;20176;-96
2022/02/25 01:31:12;;;;;;;11.07;2.87;;;3.90;1.00;;;;;;5052336;28;20226;-95
2022/02/25 01:33:37;;;;;;;9.90;3.03;;;4.00;1.00;;;;;;5060432;28;20173;-96
2022/02/25 01:36:04;;;;;;;11.10;2.97;;;3.90;1.00;;;;;;5056608;28;20200;-96
2022/02/25 01:38:30;;;;;;;7.37;2.13;;;3.90;1.00;;;;;;5043958;28;20172;-93
2022/02/25 01:41:00;;;;;;;7.70;2.13;;;4.00;1.00;;;;;;5044551;28;20181;-96
2022/02/25 01:43:28;;;;;;;12.40;2.77;;;4.10;1.00;;;;;;5055969;28;20224;-96
2022/02/25 01:45:56;;;;;;;12.03;3.20;;;3.90;1.00;;;;;;5058188;28;20189;-96
2022/02/25 01:48:21;;;;;;;8.77;2.40;;;3.90;1.00;;;;;;5027150;28;20172;-93
2022/02/25 01:50:49;;;;;;;10.30;2.30;;;3.90;1.00;;;;;;5061162;28;20216;-93
2022/02/25 01:53:20;;;;;;;9.40;2.77;;;3.90;1.00;;;;;;5061260;28;20181;-95
2022/02/25 01:55:49;;;;;;;9.20;2.37;;;3.90;1.00;;;;;;5042708;28;20166;-91
2022/02/25 01:58:19;;;;;;;10.47;2.47;;;3.90;1.00;;;;;;5016415;28;20174;-95
2022/02/25 02:00:52;;;;;;;12.30;2.90;;;3.90;4.10;;;;;;5026256;28;20224;-95
2022/02/25 02:03:21;;;;;;;8.30;2.60;;;3.90;1.00;;;;;;5023637;28;20162;-95
2022/02/25 02:05:50;;;;;;;7.37;2.53;;;4.00;1.00;;;;;;5007753;28;20181;-95
2022/02/25 02:08:16;;;;;;;8.30;2.73;;;3.90;1.00;;;;;;5022242;28;20284;-95
2022/02/25 02:10:51;;;;;;;8.17;2.47;;;4.20;1.00;;;;;;5024267;28;20229;-94
2022/02/25 02:13:17;;;;;;;14.17;3.20;;;4.00;1.00;;;;;;5006084;28;20239;-96
2022/02/25 02:15:42;;;;;;;10.93;2.80;;;4.00;1.00;;;;;;5024567;28;20181;-95
2022/02/25 02:18:10;;;;;;;6.37;2.40;;;3.90;1.00;;;;;;5025546;28;20223;-93
2022/02/25 02:20:35;;;;;;;9.20;2.20;;;4.00;1.00;;;;;;5028890;28;20692;-96
2022/02/25 02:23:03;;;;;;;14.97;3.03;;;4.10;1.00;;;;;;5023561;28;20177;-96
2022/02/25 02:25:28;;;;;;;11.33;3.20;;;4.00;1.00;;;;;;5031120;28;20172;-96
2022/02/25 02:30:40;;;;;;;7.57;2.80;;;4.00;1.00;;;;;;5058127;28;20198;-95
2022/02/25 02:33:06;;;;;;;6.87;2.67;;;4.00;1.00;;;;;;5045490;28;20188;-95
2022/02/25 02:35:32;;;;;;;8.90;2.70;;;4.00;1.00;;;;;;5054090;28;20195;-95
2022/02/25 02:37:58;;;;;;;12.43;2.43;;;4.10;1.00;;;;;;5059804;28;20169;-96
2022/02/25 02:40:24;;;;;;;9.57;2.80;;;4.00;1.00;;;;;;5042855;28;20196;-95
2022/02/25 02:42:49;;;;;;;11.00;3.13;;;4.10;1.00;;;;;;5060130;28;20164;-94
2022/02/25 02:45:18;;;;;;;7.67;2.70;;;4.10;1.00;;;;;;5056195;28;20507;-96
2022/02/25 02:47:44;;;;;;;13.37;2.80;;;4.00;1.00;;;;;;5053478;28;20180;-96
2022/02/25 02:50:15;;;;;;;11.20;2.50;;;3.80;2.90;;;;;;5050316;28;20246;-96
2022/02/25 02:52:44;;;;;;;8.87;2.10;;;3.80;10.00;;;;;;5050914;28;20242;-96
2022/02/25 02:55:11;;;;;;;10.70;2.40;;;3.70;15.60;;;;;;5044439;28;20181;-96
2022/02/25 02:57:36;;;;;;;11.17;2.37;;;3.70;18.40;;;;;;5030759;28;20204;-96
2022/02/25 03:00:07;;;;;;;9.03;2.53;;;3.60;21.30;;;;;;5033375;28;20174;-95
2022/02/25 03:02:38;;;;;;;7.70;1.73;;;3.60;22.20;;;;;;5027677;28;20170;-95
2022/02/25 03:05:08;;;;;;;7.13;2.00;;;3.60;23.80;;;;;;5020450;28;20224;-96
2022/02/25 03:07:35;;;;;;;8.73;2.30;;;3.60;26.50;;;;;;5028220;28;20197;-96
2022/02/25 03:10:01;;;;;;;10.37;2.30;;;3.50;27.70;;;;;;5027975;28;20194;-94
2022/02/25 03:12:28;;;;;;;10.53;2.67;;;3.50;30.90;;;;;;5020814;28;20661;-95
2022/02/25 03:14:54;;;;;;;16.73;2.50;;;3.50;33.40;;;;;;5020440;28;20197;-96
2022/02/25 03:17:20;;;;;;;14.17;2.50;;;3.40;34.60;;;;;;5020202;28;20729;-96
2022/02/25 03:19:46;;;;;;;9.37;2.43;;;3.40;37.30;;;;;;5019116;28;20202;-96
2022/02/25 03:22:12;;;;;;;15.10;2.70;;;3.40;37.00;;;;;;5018951;28;20235;-96
2022/02/25 03:24:38;;;;;;;12.17;3.80;;;3.50;37.00;;;;;;5019724;28;20188;-95
2022/02/25 03:27:04;;;;;;;11.70;2.77;;;3.60;33.10;;;;;;5034634;28;20559;-95
2022/02/25 03:29:30;;;;;;;11.37;2.37;;;3.60;34.10;;;;;;5038956;28;20185;-96
2022/02/25 03:31:57;;;;;;;7.83;2.67;;;3.60;33.40;;;;;;5040046;28;20205;-95
2022/02/25 03:34:23;;;;;;;15.40;3.23;;;3.50;34.60;;;;;;5041679;28;20224;-95
2022/02/25 03:36:51;;;;;;;11.80;2.43;;;3.60;36.90;;;;;;5038376;28;20173;-95
2022/02/25 03:39:17;;;;;;;9.70;2.83;;;3.50;35.80;;;;;;5040076;28;20203;-93
2022/02/25 03:41:43;;;;;;;9.80;2.40;;;3.60;37.60;;;;;;5041014;28;20188;-96
2022/02/25 03:44:09;;;;;;;8.00;2.10;;;3.60;35.60;;;;;;5044834;28;20166;-95
2022/02/25 03:46:37;;;;;;;8.60;2.50;;;3.60;34.60;;;;;;5046615;28;20189;-96
2022/02/25 03:49:03;;;;;;;8.87;2.43;;;3.60;35.70;;;;;;5041453;28;20169;-95
2022/02/25 03:51:31;;;;;;;10.83;2.60;;;3.60;35.80;;;;;;5060764;28;20216;-95
2022/02/25 03:53:57;;;;;;;8.30;2.30;;;3.70;33.80;;;;;;5057163;28;20181;-95
2022/02/25 03:56:23;;;;;;;8.93;2.33;;;3.70;32.50;;;;;;5052672;28;20190;-96
2022/02/25 03:58:54;;;;;;;12.20;2.80;;;3.70;28.90;;;;;;5052746;28;20181;-95
2022/02/25 04:01:24;;;;;;;9.83;2.30;;;3.70;33.00;;;;;;5053673;28;20178;-96
2022/02/25 04:03:52;;;;;;;11.50;2.73;;;3.60;34.50;;;;;;5045181;28;20166;-96
2022/02/25 04:06:19;;;;;;;10.97;2.53;;;3.60;35.00;;;;;;5040576;28;20169;-96
2022/02/25 04:08:45;;;;;;;7.17;2.13;;;3.60;38.10;;;;;;5040151;28;20591;-95
2022/02/25 04:11:12;;;;;;;11.40;2.10;;;3.50;37.50;;;;;;5038923;28;20202;-95
2022/02/25 04:13:39;;;;;;;10.17;2.27;;;3.50;39.60;;;;;;5046139;28;20197;-96
2022/02/25 04:16:07;;;;;;;9.23;2.13;;;3.50;41.60;;;;;;5044779;28;20184;-95
2022/02/25 04:18:33;;;;;;;13.13;2.40;;;3.60;41.40;;;;;;5034748;28;20204;-94
2022/02/25 04:21:00;;;;;;;9.33;2.27;;;3.60;40.20;;;;;;5043749;28;20219;-96
2022/02/25 04:23:26;;;;;;;6.73;2.13;;;3.50;40.60;;;;;;5025504;28;20193;-94
2022/02/25 04:25:53;;;;;;;16.17;3.50;;;3.50;41.60;;;;;;5041187;28;20227;-95
2022/02/25 04:28:19;;;;;;;8.40;1.93;;;3.50;44.70;;;;;;5042021;28;20177;-96
2022/02/25 04:30:46;;;;;;;10.47;2.67;;;3.50;41.70;;;;;;5048666;28;20237;-96
2022/02/25 04:33:13;;;;;;;10.97;2.47;;;3.70;44.40;;;;;;5028587;28;20247;-96
2022/02/25 04:35:42;;;;;;;11.80;2.20;;;3.70;38.10;;;;;;5046730;28;20166;-93
2022/02/25 04:38:08;;;;;;;9.43;2.00;;;3.90;38.50;;;;;;5046555;28;20204;-94
2022/02/25 04:40:35;;;;;;;11.27;2.40;;;3.70;34.80;;;;;;5025333;28;20640;-93
2022/02/25 04:43:02;;;;;;;9.10;2.17;;;3.70;36.30;;;;;;5039888;28;20660;-96
2022/02/25 04:45:28;;;;;;;9.33;2.77;;;3.70;35.30;;;;;;5040168;28;20189;-94
2022/02/25 04:47:57;;;;;;;8.50;2.47;;;3.70;36.40;;;;;;5039060;28;20182;-95
2022/02/25 04:50:23;;;;;;;12.87;2.63;;;3.70;37.30;;;;;;5039818;28;20182;-95
2022/02/25 04:52:50;;;;;;;10.87;2.67;;;3.60;39.90;;;;;;5023605;28;20166;-96
2022/02/25 04:55:16;;;;;;;8.23;2.27;;;3.70;42.60;;;;;;5039674;28;20196;-96
2022/02/25 04:57:43;;;;;;;8.17;2.27;;;3.80;39.60;;;;;;5039758;28;20182;-96
2022/02/25 05:00:13;;;;;;;10.17;2.83;;;3.90;39.90;;;;;;5042429;28;20171;-95
2022/02/25 05:02:45;;;;;;;8.33;2.33;;;3.80;39.30;;;;;;5027911;28;20197;-95
2022/02/25 05:05:11;;;;;;;13.90;2.47;;;3.80;40.20;;;;;;5041348;28;20181;-96
2022/02/25 05:07:37;;;;;;;11.53;2.50;;;3.80;40.30;;;;;;5024904;28;20178;-96
2022/02/25 05:10:05;;;;;;;7.43;2.60;;;3.90;38.40;;;;;;5042396;28;20181;-95
2022/02/25 05:12:31;;;;;;;9.30;1.90;;;4.00;33.90;;;;;;5043865;28;20209;-96
2022/02/25 05:20:28;;;;;;;9.40;2.50;;;4.10;28.80;;;;;;5050757;28;20184;-96
2022/02/25 05:22:59;;;;;;;12.43;2.77;;;4.10;28.40;;;;;;5057203;28;20165;-94
2022/02/25 05:25:28;;;;;;;7.50;2.07;;;4.10;30.10;;;;;;5042754;28;20166;-95
2022/02/25 05:28:01;;;;;;;13.50;4.80;;;4.10;31.90;;;;;;5058014;28;20192;-96
2022/02/25 05:30:31;;;;;;;9.27;2.57;;;4.00;33.60;;;;;;5058623;28;20182;-95
2022/02/25 05:33:00;;;;;;;9.57;2.33;;;4.20;35.60;;;;;;5058235;28;20158;-93
2022/02/25 05:36:10;;;;;;;7.50;2.10;;;4.20;31.20;;;;;;5054302;28;20194;-94
2022/02/25 05:38:36;;;;;;;12.93;2.97;;;4.20;34.40;;;;;;5045228;28;20182;-96
2022/02/25 05:41:02;;;;;;;9.20;2.90;;;4.40;31.40;;;;;;5043662;28;20247;-96
2022/02/25 05:43:34;;;;;;;11.90;3.00;;;4.50;28.30;;;;;;5045650;28;20173;-95
2022/02/25 05:46:03;;;;;;;12.60;2.57;;;4.40;28.50;;;;;;5046456;28;20234;-96
2022/02/25 05:48:30;;;;;;;11.60;3.13;;;4.40;29.80;;;;;;5043396;28;20181;-95
2022/02/25 05:50:57;;;;;;;9.30;2.90;;;4.40;31.40;;;;;;5026676;28;20658;-95
2022/02/25 05:53:24;;;;;;;11.23;2.80;;;4.50;31.40;;;;;;5043352;28;20198;-94
2022/02/25 05:55:51;;;;;;;7.93;2.20;;;4.40;31.80;;;;;;5044287;28;20178;-96
2022/02/25 05:58:19;;;;;;;15.20;2.70;;;4.60;34.80;;;;;;5042677;28;20177;-96
2022/02/25 06:00:44;;;;;;;8.73;2.30;;;4.60;34.20;;;;;;5044611;28;20182;-96
2022/02/25 06:03:11;;;;;;;9.73;2.57;;;4.50;32.50;;;;;;5050422;28;20196;-94
2022/02/25 06:05:38;;;;;;;8.33;2.40;;;4.50;34.50;;;;;;5041504;28;20162;-92
2022/02/25 06:08:05;;;;;;;8.37;2.97;;;4.60;34.80;;;;;;5041309;28;20177;-90
2022/02/25 06:10:32;;;;;;;6.33;1.70;;;4.60;37.50;;;;;;5058228;28;20208;-94
2022/02/25 06:13:00;;;;;;;9.17;2.70;;;4.50;36.30;;;;;;5057044;28;20177;-94
2022/02/25 06:15:29;;;;;;;7.53;2.57;;;4.50;41.10;;;;;;5041200;28;20268;-93
2022/02/25 06:18:13;;;;;;;11.03;2.70;;;4.60;42.20;;;;;;5057992;28;20153;-91
2022/02/25 06:20:53;;;;;;;9.67;2.30;;;4.60;41.50;;;;;;5058199;28;20169;-91
2022/02/25 06:23:24;;;;;;;12.37;2.63;;;4.80;37.40;;;;;;5056645;28;20161;-95
2022/02/25 06:25:54;;;;;;;12.33;3.00;;;4.80;33.30;;;;;;5037593;28;20194;-94
2022/02/25 06:28:23;;;;;;;10.07;2.47;;;4.80;35.30;;;;;;5054317;28;20182;-94
2022/02/25 06:37:28;;;;;;;9.67;2.57;;;4.80;40.30;;;;;;5034214;28;20201;-93
2022/02/25 06:40:00;;;;;;;12.53;3.03;;;4.80;40.50;;;;;;5016593;28;20174;-93
2022/02/25 06:45:24;;;;;;;11.97;2.87;;;4.90;41.30;;;;;;5230762;22;20225;-92
2022/02/25 06:47:52;;;;;;;11.80;2.30;;;4.90;45.70;;;;;;5020940;28;20166;-95
2022/02/25 06:50:21;;;;;;;8.57;2.20;;;4.90;45.70;;;;;;5020947;28;20166;-95
2022/02/25 06:52:48;;;;;;;6.60;2.60;;;4.90;44.00;;;;;;5018610;28;20198;-93
2022/02/25 06:55:22;;;;;;;8.43;2.30;;;4.90;46.80;;;;;;5017653;28;20746;-94
2022/02/25 06:57:48;;;;;;;15.37;3.57;;;5.00;47.70;;;;;;4993786;28;20265;-92
2022/02/25 07:00:21;;;;;;;7.40;2.93;;;4.90;47.60;;;;;;5005115;28;20185;-95
2022/02/25 07:02:50;;;;;;;11.83;2.67;;;5.00;50.20;;;;;;5008086;28;20170;-96
2022/02/25 07:05:20;;;;;;;11.23;3.47;;;4.90;50.10;;;;;;4996590;28;20174;-96
2022/02/25 07:10:15;;;;;;;11.80;2.50;;;5.00;49.10;;;;;;5034703;28;20206;-89
2022/02/25 07:12:41;;;;;;;10.97;2.67;;;5.10;47.90;;;;;;5023886;28;20202;-91
2022/02/25 07:15:08;;;;;;;11.93;2.67;;;5.20;49.80;;;;;;5024512;28;20225;-94
2022/02/25 07:17:38;;;;;;;12.77;3.20;;;5.10;50.30;;;;;;5023925;28;20193;-94
2022/02/25 07:20:08;;;;;;;9.13;2.93;;;5.10;52.30;;;;;;5022102;28;20190;-95
2022/02/25 07:22:37;;;;;;;9.87;2.70;;;5.00;54.60;;;;;;5017667;28;20182;-94
2022/02/25 07:25:04;;;;;;;11.13;3.57;;;4.90;58.20;;;;;;5012727;28;20194;-93
2022/02/25 07:27:29;;;;;;;11.90;3.37;;;5.00;57.60;;;;;;5010756;28;20217;-94
2022/02/25 07:30:14;;;;;;;12.27;2.73;;;5.10;56.10;;;;;;5015713;28;20183;-95
2022/02/25 07:33:17;;;;;;;11.27;2.50;;;5.10;56.60;;;;;;5013668;28;20340;-96
2022/02/25 07:36:27;;;;;;;10.70;3.03;;;5.20;53.60;;;;;;5014917;28;20165;-95
2022/02/25 07:39:10;;;;;;;12.00;3.60;;;5.20;54.80;;;;;;5019161;28;20265;-94
2022/02/25 07:45:25;;;;;;;11.97;2.63;;;5.40;50.20;;;;;;5038790;28;20151;-94
2022/02/25 07:47:51;;;;;;;14.33;3.20;;;5.50;47.90;;;;;;5041212;28;20230;-93
2022/02/25 07:50:19;;;;;;;15.77;2.77;;;5.60;43.60;;;;;;5024237;28;20215;-95
2022/02/25 07:52:47;;;;;;;12.43;3.90;;;5.70;40.50;;;;;;5021934;28;20202;-95
2022/02/25 07:55:15;;;;;;;13.77;4.13;;;5.90;37.50;;;;;;5021537;28;20163;-96
2022/02/25 07:57:42;;;;;;;13.70;3.13;;;5.90;36.90;;;;;;5004109;28;20179;-96
2022/02/25 08:52:23;;;;;;;18.30;3.30;;;6.40;1.00;;;;;;5053054;28;20229;-96
2022/02/25 08:58:10;;;;;;;16.27;3.10;;;6.50;1.00;;;;;;5331933;22;20222;-95
2022/02/25 09:01:02;;;;;;;12.97;3.50;;;6.50;1.00;;;;;;5021346;28;20182;-94
2022/02/25 09:04:16;;;;;;;12.83;3.73;;;6.60;1.00;;;;;;4998971;28;20172;-95
2022/02/25 09:10:08;;;;;;;15.27;3.77;;;6.50;1.00;;;;;;4976734;28;20200;-96
2022/02/25 09:13:01;;;;;;;18.00;4.73;;;6.70;1.00;;;;;;4943706;29;20224;-96
2022/02/25 09:15:54;;;;;;;14.43;3.30;;;6.90;1.00;;;;;;4971549;28;20184;-96
2022/02/25 09:18:38;;;;;;;17.00;4.20;;;6.80;1.00;;;;;;4973162;29;20179;-95
2022/02/25 09:24:38;;;;;;;12.83;4.10;;;6.90;1.00;;;;;;4979475;28;20191;-96
2022/02/25 09:27:42;;;;;;;18.63;4.80;;;6.90;1.00;;;;;;4977709;28;20196;-96
2022/02/25 09:30:18;;;;;;;20.70;3.83;;;7.10;1.00;;;;;;5018097;28;20193;-95
2022/02/25 09:32:50;;;;;;;14.73;3.47;;;7.00;1.00;;;;;;5002286;28;20210;-95
2022/02/25 09:35:59;;;;;;;13.30;3.17;;;7.10;1.00;;;;;;4999056;28;20227;-94
2022/02/25 09:38:55;;;;;;;15.07;4.30;;;7.30;1.00;;;;;;5016832;28;20171;-96
2022/02/25 09:41:30;;;;;;;11.97;3.67;;;7.30;1.00;;;;;;4996520;28;20186;-96
2022/02/25 09:44:04;;;;;;;15.37;3.73;;;7.50;1.00;;;;;;4997619;28;20166;-95
2022/02/25 09:46:34;;;;;;;13.03;3.80;;;7.70;1.00;;;;;;4997982;28;20182;-94
2022/02/25 09:49:47;;;;;;;12.23;3.30;;;7.40;1.00;;;;;;4985438;28;20171;-96
2022/02/25 09:52:15;;;;;;;13.87;4.10;;;7.60;1.00;;;;;;5000043;28;20222;-96
2022/02/25 09:55:10;;;;;;;10.37;4.30;;;7.60;1.00;;;;;;4982628;28;20183;-96
2022/02/25 09:57:52;;;;;;;15.00;5.37;;;7.50;1.00;;;;;;5014080;28;20202;-96
2022/02/25 10:00:47;;;;;;;14.83;5.57;;;7.60;1.00;;;;;;4979543;28;20191;-96
2022/02/25 10:04:22;;;;;;;27.93;9.77;;;7.70;1.00;;;;;;5010632;28;20223;-95
2022/02/25 10:07:45;;;;;;;15.90;3.60;;;7.80;1.00;;;;;;5011079;28;20194;-96
2022/02/25 10:10:20;;;;;;;13.97;3.50;;;7.80;1.00;;;;;;5009907;28;20201;-96
2022/02/25 10:13:13;;;;;;;11.90;3.77;;;7.70;1.00;;;;;;4998260;28;20187;-96
2022/02/25 10:15:50;;;;;;;10.97;3.13;;;7.70;1.00;;;;;;4993909;28;20173;-96
2022/02/25 10:18:43;;;;;;;15.40;4.97;;;7.70;1.00;;;;;;4998067;28;20151;-93
2022/02/25 10:21:19;;;;;;;16.30;4.57;;;7.80;1.00;;;;;;4966134;28;20203;-96
2022/02/25 10:24:03;;;;;;;19.77;5.07;;;7.90;1.00;;;;;;4995669;28;20230;-95
2022/02/25 10:27:18;;;;;;;19.13;9.10;;;8.00;1.00;;;;;;4996718;28;20179;-95
2022/02/25 10:30:14;;;;;;;16.37;6.20;;;7.90;1.00;;;;;;5015091;28;20167;-96
2022/02/25 10:37:13;;;;;;;12.90;3.40;;;8.00;1.00;;;;;;5042342;22;20291;-96
2022/02/25 10:40:20;;;;;;;12.63;3.20;;;8.00;1.00;;;;;;5036597;28;20178;-96
2022/02/25 10:47:11;;;;;;;9.13;4.00;;;8.00;1.00;;;;;;5035493;28;20193;-94
2022/02/25 10:54:04;;;;;;;21.33;6.70;;;8.10;1.00;;;;;;4976704;29;20191;-93
2022/02/25 11:00:56;;;;;;;16.30;5.10;;;8.40;1.00;;;;;;4976960;29;20163;-94
2022/02/25 11:04:26;;;;;;;10.00;2.67;;;8.50;1.00;;;;;;4975208;28;20176;-93
2022/02/25 11:07:29;;;;;;;10.00;2.97;;;8.50;1.00;;;;;;4959939;28;20176;-94
2022/02/25 11:13:45;;;;;;;13.03;2.77;;;8.40;1.00;;;;;;4947206;28;20252;-94
2022/02/25 11:17:23;;;;;;;18.20;3.50;;;8.30;1.00;;;;;;5150686;22;20627;-93
2022/02/25 11:21:00;;;;;;;8.97;3.47;;;8.50;1.00;;;;;;4956731;28;20176;-93
2022/02/25 11:31:03;;;;;;;10.10;2.77;;;8.60;1.00;;;;;;4939012;29;20255;-94
2022/02/25 11:54:53;;;;;;;13.00;2.87;;;9.20;99.90;;;;;;4980292;28;20252;-95
2022/02/25 11:57:40;;;;;;;12.97;3.77;;;9.00;99.90;;;;;;4982917;28;20164;-94
2022/02/25 12:04:14;;;;;;;9.13;2.43;;;8.90;99.90;;;;;;5019783;28;20167;-93
2022/02/25 12:07:26;;;;;;;10.13;2.50;;;8.90;90.30;;;;;;5013973;28;20257;-93
2022/02/25 12:10:30;;;;;;;12.67;2.97;;;8.80;99.90;;;;;;5403115;22;20211;-95
2022/02/25 12:13:55;;;;;;;7.60;2.60;;;9.10;99.90;;;;;;5130752;22;20230;-94
2022/02/25 12:17:28;;;;;;;9.53;3.63;;;8.70;27.00;;;;;;5036515;28;20183;-91
2022/02/25 12:20:47;;;;;;;10.50;2.67;;;8.70;99.90;;;;;;5019811;28;20186;-91
2022/02/25 12:32:48;;;;;;;7.20;2.37;;;7.70;1.00;;;;;;5034318;28;20459;-96
2022/02/25 12:35:37;;;;;;;10.93;2.80;;;7.70;1.00;;;;;;5019890;28;20198;-92
2022/02/25 12:38:22;;;;;;;9.30;3.07;;;7.80;1.00;;;;;;5022623;28;20177;-95
2022/02/25 12:41:44;;;;;;;9.47;2.60;;;8.00;1.00;;;;;;5037204;28;20166;-96
2022/02/25 12:44:47;;;;;;;14.43;3.27;;;8.20;1.00;;;;;;5024570;28;20232;-92
2022/02/25 12:47:14;;;;;;;9.37;3.30;;;8.40;1.00;;;;;;5010446;28;20174;-94
2022/02/25 12:49:42;;;;;;;9.73;2.93;;;8.50;1.00;;;;;;5020850;28;20159;-95
2022/02/25 12:52:13;;;;;;;10.20;3.23;;;8.50;1.00;;;;;;5020305;28;20298;-95
2022/02/25 12:54:45;;;;;;;12.53;3.43;;;8.40;1.00;;;;;;5034530;28;20205;-94
2022/02/25 12:57:14;;;;;;;13.20;3.30;;;8.40;1.00;;;;;;5020105;28;20217;-95
2022/02/25 12:59:49;;;;;;;16.53;3.30;;;8.60;1.00;;;;;;5014773;28;20257;-95
2022/02/25 13:02:33;;;;;;;10.60;3.30;;;8.60;1.00;;;;;;4993527;28;20261;-95
2022/02/25 13:05:00;;;;;;;10.87;2.37;;;8.60;1.00;;;;;;5009548;28;20709;-96
2022/02/25 13:07:26;;;;;;;9.10;2.70;;;8.70;1.00;;;;;;5030486;28;20245;-93
2022/02/25 13:09:53;;;;;;;11.93;3.20;;;8.50;1.00;;;;;;5009190;28;20166;-95
2022/02/25 13:12:36;;;;;;;9.40;2.60;;;8.50;1.00;;;;;;5008938;28;20202;-94
2022/02/25 13:15:05;;;;;;;10.23;2.07;;;8.50;1.00;;;;;;5007335;28;20166;-94
2022/02/25 13:17:34;;;;;;;10.83;3.13;;;8.50;99.90;;;;;;5008231;28;20186;-93
2022/02/25 13:20:04;;;;;;;10.40;2.70;;;8.60;99.90;;;;;;5008073;28;20179;-95
2022/02/25 13:22:31;;;;;;;9.07;2.57;;;8.50;99.90;;;;;;5016349;28;20185;-88
2022/02/25 13:25:13;;;;;;;14.00;3.03;;;8.50;99.90;;;;;;5001708;28;20252;-91
2022/02/25 13:27:47;;;;;;;7.87;2.53;;;8.60;99.90;;;;;;5001506;28;20202;-90
2022/02/25 13:30:22;;;;;;;9.10;2.50;;;8.70;99.90;;;;;;5020296;28;20186;-87
2022/02/25 13:33:12;;;;;;;9.67;2.60;;;8.80;99.90;;;;;;5002608;28;20278;-91
2022/02/25 13:36:00;;;;;;;9.17;2.53;;;8.70;99.90;;;;;;5004963;28;20177;-89
2022/02/25 13:38:31;;;;;;;11.47;2.90;;;8.90;99.90;;;;;;5002555;28;20186;-92
2022/02/25 13:41:01;;;;;;;12.07;3.07;;;9.00;99.90;;;;;;5029979;28;20170;-91
2022/02/25 13:43:40;;;;;;;13.50;4.03;;;9.00;1.00;;;;;;5038041;28;20171;-90
2022/02/25 13:46:18;;;;;;;15.67;4.70;;;9.20;99.90;;;;;;5017452;28;20182;-90
2022/02/25 13:55:11;;;;;;;11.43;3.37;;;9.50;99.90;;;;;;5021212;28;20185;-89
2022/02/25 13:57:44;;;;;;;11.27;3.23;;;9.40;1.00;;;;;;5018179;28;20615;-88
2022/02/25 14:00:26;;;;;;;8.57;2.47;;;9.30;99.90;;;;;;5000244;28;20174;-86
2022/02/25 14:02:55;;;;;;;9.73;2.43;;;9.30;99.90;;;;;;5013954;28;20170;-89
2022/02/25 14:05:42;;;;;;;10.80;2.87;;;9.10;1.00;;;;;;4992884;28;20198;-88
2022/02/25 14:08:23;;;;;;;7.57;2.37;;;8.90;99.90;;;;;;5009314;28;20178;-91
2022/02/25 14:10:49;;;;;;;5.40;1.90;;;8.70;99.90;;;;;;5003944;28;20593;-88
2022/02/25 14:13:44;;;;;;;4.93;1.53;;;8.40;99.90;;;;;;5002825;28;20182;-90
2022/02/25 14:16:32;;;;;;;7.73;2.03;;;8.20;99.90;;;;;;5002964;28;20170;-93
2022/02/25 14:19:32;;;;;;;6.03;2.10;;;8.30;99.90;;;;;;5004167;28;20178;-90
2022/02/25 14:22:11;;;;;;;8.97;2.10;;;8.20;1.00;;;;;;5003199;28;20215;-90
2022/02/25 14:24:57;;;;;;;7.27;2.17;;;8.20;1.00;;;;;;5002481;28;20182;-89
2022/02/25 14:27:23;;;;;;;10.30;2.13;;;7.70;1.00;;;;;;5004366;28;20201;-88
2022/02/25 14:30:05;;;;;;;7.97;2.80;;;7.50;1.00;;;;;;5002364;28;20186;-93
2022/02/25 14:32:33;;;;;;;10.47;2.33;;;7.60;1.00;;;;;;5004129;28;20538;-91
2022/02/25 14:35:03;;;;;;;9.70;2.60;;;7.70;1.00;;;;;;5005221;28;20177;-95
2022/02/25 14:37:38;;;;;;;8.73;3.30;;;7.80;1.00;;;;;;5004817;28;20181;-89
2022/02/25 14:40:05;;;;;;;13.97;3.70;;;7.70;1.00;;;;;;5018875;28;20253;-91
2022/02/25 14:42:35;;;;;;;8.87;3.03;;;7.90;1.00;;;;;;4988622;28;20182;-92
2022/02/25 14:45:03;;;;;;;11.43;3.20;;;8.00;1.00;;;;;;5004953;28;20183;-91
2022/02/25 14:47:35;;;;;;;15.33;5.00;;;8.10;1.00;;;;;;5004850;28;20147;-90
2022/02/25 14:50:04;;;;;;;10.97;3.37;;;8.20;1.00;;;;;;5002541;28;20324;-92
2022/02/25 14:52:31;;;;;;;11.57;3.63;;;8.30;1.00;;;;;;5003142;28;20241;-90
2022/02/25 14:55:00;;;;;;;11.27;3.33;;;8.30;1.00;;;;;;5000773;28;20174;-93
2022/02/25 14:57:25;;;;;;;15.13;4.20;;;8.50;1.00;;;;;;5002463;28;20194;-91
2022/02/25 14:59:51;;;;;;;23.17;6.67;;;8.60;1.00;;;;;;4988528;28;20201;-89
2022/02/25 15:02:19;;;;;;;14.47;3.90;;;8.80;1.00;;;;;;5010612;28;20224;-92
2022/02/25 15:04:46;;;;;;;14.03;4.60;;;9.00;1.00;;;;;;5020967;28;20169;-91
2022/02/25 15:07:15;;;;;;;13.53;3.67;;;9.10;1.00;;;;;;5022798;28;20192;-91
2022/02/25 15:09:41;;;;;;;10.53;4.73;;;9.20;1.00;;;;;;5022346;28;20227;-91
2022/02/25 15:12:15;;;;;;;12.27;4.33;;;9.40;1.00;;;;;;5019056;28;20213;-91
2022/02/25 15:14:41;;;;;;;14.90;3.83;;;10.20;99.90;;;;;;5004310;28;20205;-91
2022/02/25 15:17:06;;;;;;;9.10;4.00;;;10.40;99.90;;;;;;4999019;28;20632;-91
2022/02/25 15:19:37;;;;;;;9.63;3.40;;;10.90;99.90;;;;;;5001012;28;20181;-92
2022/02/25 15:22:09;;;;;;;11.67;2.70;;;11.00;99.90;;;;;;5000604;28;20182;-92
2022/02/25 15:24:38;;;;;;;12.63;3.80;;;10.70;1.00;;;;;;5006274;28;20181;-92
2022/02/25 15:27:05;;;;;;;13.77;3.50;;;11.00;1.00;;;;;;5014315;28;20210;-93
2022/02/25 15:29:40;;;;;;;11.77;3.33;;;11.30;1.00;;;;;;5014071;28;20202;-92
2022/02/25 15:32:08;;;;;;;12.00;3.70;;;11.30;1.00;;;;;;5031434;28;20210;-92
2022/02/25 15:34:35;;;;;;;13.57;3.47;;;11.10;99.90;;;;;;5027854;28;20553;-92
2022/02/25 15:37:02;;;;;;;12.70;3.20;;;11.20;99.90;;;;;;5007241;28;20174;-92
2022/02/25 15:39:33;;;;;;;6.57;2.50;;;11.50;1.00;;;;;;5005152;28;20201;-92
2022/02/25 15:42:03;;;;;;;9.00;2.60;;;11.20;35.50;;;;;;5005854;28;20174;-92
2022/02/25 15:44:34;;;;;;;8.57;2.70;;;11.00;58.20;;;;;;5005378;28;20186;-92
2022/02/25 15:47:24;;;;;;;10.57;2.63;;;10.80;99.90;;;;;;5004471;28;20174;-90
2022/02/25 15:49:50;;;;;;;14.27;3.53;;;10.80;1.00;;;;;;5004757;28;20258;-93
2022/02/25 15:52:22;;;;;;;9.20;3.20;;;10.50;1.00;;;;;;5004750;28;20329;-92
2022/02/25 15:54:49;;;;;;;10.67;3.60;;;10.20;1.00;;;;;;5009707;28;20202;-92
2022/02/25 15:57:18;;;;;;;19.60;8.03;;;9.80;1.00;;;;;;5007318;28;20182;-92
2022/02/25 15:59:47;;;;;;;10.90;3.07;;;9.80;43.10;;;;;;5008078;28;20170;-91
2022/02/25 16:02:17;;;;;;;10.17;3.77;;;9.50;1.00;;;;;;4992882;28;20185;-92
2022/02/25 16:04:48;;;;;;;10.10;2.93;;;9.40;99.90;;;;;;5009117;28;20182;-91
2022/02/25 16:07:22;;;;;;;14.17;4.63;;;9.20;53.50;;;;;;5011520;28;20277;-91